Aeroporto :
LOGIN :

Iscrizione | Disclaimer

   EN    FR    IT 

 










Sommario :    VFR   VFR Marginale   IFR   IFR Intensivo   IFR Molto Intensivo
Visibilità : 
Base nubi : 
>= 8 km
>= 3000ft
5 / 8 km
1000 / 3000 ft
1500m / 5 km
500 / 1000 ft
800 / 1500m
200 / 500 ft
< 800m
< 200 ft
Simboli :   Temporali  Nebbia  Neve Forte  Precipitazioni Forti  Vento > 20 kt
SIGMETs :   Varie  Temporali  Ghiacco  Turbolenza  Onda orograficha  Ceneri Vulcaniche






- Altitudine del aeroporto : 76 ft
- Codice IATA : KID


ESMK - Kristianstad

ULTIMO METAR :
  • 041650Z AUTO 24006KT 200V260 9999 BKN045/// 09/00 Q1024

METARs OBSOLETI :
  • 041620Z AUTO 25006KT 9999 FEW049/// 09/00 Q1024
  • 041550Z AUTO 25009KT 9999 FEW046/// 09/M00 Q1024
  • 041520Z AUTO 24011KT 9999 FEW053/// 10/M02 Q1024
  • 041450Z AUTO 24011KT 9999 BKN051/// 09/M02 Q1024
  • 041420Z AUTO 25009KT 190V260 9999 SCT051/// 09/M01 Q1023

Previsioni scadute.



MetMap, La meteo Aeronautica in un colpo d'occhio ! - Copyright ORBIFLY Dicembre 2007 - Disclaimer

ORBIFLY MET'MAP TEAM :

Programmazione e sviluppo : Alexandra Zaïnal
Concezione : Baudouin d'Aumeries
Aiuto per la programmazione : Marc-Olivier Méhu
Supporto tecnico e logistico : Manuel Goepfert
Aiuto per la traduzione : Arnaldo La Scala

Contatto : metmap@orbifly.com




FONTI E CREDITI :

   NOAA